Time;durP1;ratioP1;P1;durP2;ratioP2;P2;SDS_P1;SDS_P2;PMS_P1;PMS_P2;Temp;Humidity;BMP_temperature;BMP_pressure;BME280_temperature;BME280_humidity;BME280_pressure;Samples;Min_cycle;Max_cycle;Signal;HPM_P1;HPM_P2
2022/01/17 00:01:28;;;;;;;;;;;5.40;99.90;;;;;;5017800;28;20365;-78
2022/01/17 00:03:53;;;;;;;;;;;5.30;99.90;;;;;;5009670;28;19924;-78
2022/01/17 00:06:19;;;;;;;;;;;5.30;99.90;;;;;;5034275;28;19921;-78
2022/01/17 00:08:54;;;;;;;;;;;5.30;99.90;;;;;;5021749;28;19921;-79
2022/01/17 00:11:19;;;;;;;;;;;5.30;99.90;;;;;;5016995;28;19924;-78
2022/01/17 00:13:46;;;;;;;;;;;5.20;99.90;;;;;;5017994;28;19921;-78
2022/01/17 00:16:19;;;;;;;;;;;5.20;99.90;;;;;;5017281;28;19917;-78
2022/01/17 00:21:11;;;;;;;;;;;5.10;99.90;;;;;;4997444;28;19921;-78
2022/01/17 00:23:36;;;;;;;;;;;5.10;99.90;;;;;;5015891;28;19969;-78
2022/01/17 00:26:04;;;;;;;;;;;5.10;99.90;;;;;;5026156;28;19921;-78
2022/01/17 00:28:29;;;;;;;;;;;5.10;99.90;;;;;;5014178;28;19927;-78
2022/01/17 00:30:59;;;;;;;;;;;5.20;99.90;;;;;;5013697;28;19996;-79
2022/01/17 00:33:25;;;;;;;;;;;5.20;99.90;;;;;;5011746;28;19921;-78
2022/01/17 00:35:50;;;;;;;;;;;5.20;99.90;;;;;;5015162;28;19932;-78
2022/01/17 00:38:16;;;;;;;;;;;5.10;99.90;;;;;;5014192;28;19933;-78
2022/01/17 00:40:42;;;;;;;;;;;5.10;99.90;;;;;;5009022;28;19944;-79
2022/01/17 00:43:08;;;;;;;;;;;5.10;99.90;;;;;;5013694;28;19951;-78
2022/01/17 00:45:37;;;;;;;;;;;5.10;99.90;;;;;;5013420;28;20332;-78
2022/01/17 00:48:02;;;;;;;;;;;5.10;99.90;;;;;;5016656;28;19925;-78
2022/01/17 00:50:28;;;;;;;;;;;5.10;99.90;;;;;;5016792;28;20365;-78
2022/01/17 00:52:54;;;;;;;;;;;5.10;99.90;;;;;;5034162;28;19921;-78
2022/01/17 00:55:20;;;;;;;;;;;5.00;99.90;;;;;;5013047;28;19971;-78
2022/01/17 00:57:45;;;;;;;;;;;5.10;99.90;;;;;;4997571;28;20060;-78
2022/01/17 01:00:14;;;;;;;;;;;5.10;99.90;;;;;;4998941;28;20262;-78
2022/01/17 01:02:43;;;;;;;;;;;5.20;99.90;;;;;;5013396;28;20048;-78
2022/01/17 01:05:09;;;;;;;;;;;5.20;99.90;;;;;;5007331;28;20032;-78
2022/01/17 01:07:34;;;;;;;;;;;5.30;99.90;;;;;;5012255;28;20015;-78
2022/01/17 01:10:06;;;;;;;;;;;5.30;99.90;;;;;;4997241;28;20280;-78
2022/01/17 01:12:32;;;;;;;;;;;5.30;99.90;;;;;;4997035;28;20369;-78
2022/01/17 01:14:58;;;;;;;;;;;5.20;99.90;;;;;;4996446;28;20023;-78
2022/01/17 01:17:36;;;;;;;;;;;5.40;99.90;;;;;;5013798;28;19921;-78
2022/01/17 01:20:20;;;;;;;;;;;5.20;99.90;;;;;;4996896;28;20284;-78
2022/01/17 01:28:14;;;;;;;;;;;5.10;99.90;;;;;;5015101;28;19917;-78
2022/01/17 01:30:44;;;;;;;;;;;5.00;99.90;;;;;;5015490;28;19943;-79
2022/01/17 01:33:10;;;;;;;;;;;5.10;99.90;;;;;;5015895;28;20429;-79
2022/01/17 01:35:44;;;;;;;;;;;5.00;99.90;;;;;;5012212;28;19921;-79
2022/01/17 01:38:10;;;;;;;;;;;5.00;99.90;;;;;;4995670;28;20262;-78
2022/01/17 01:40:36;;;;;;;;;;;5.00;99.90;;;;;;4996376;28;19929;-78
2022/01/17 01:43:01;;;;;;;;;;;4.90;99.90;;;;;;4995758;28;19922;-78
2022/01/17 01:45:27;;;;;;;;;;;4.90;99.90;;;;;;5001028;28;19927;-78
2022/01/17 01:47:53;;;;;;;;;;;5.00;99.90;;;;;;5015513;28;19975;-78
2022/01/17 01:50:19;;;;;;;;;;;4.90;99.90;;;;;;5014933;28;19943;-78
2022/01/17 01:52:44;;;;;;;;;;;4.90;99.90;;;;;;5015994;28;19976;-78
2022/01/17 01:55:12;;;;;;;;;;;4.90;99.90;;;;;;5002026;28;19926;-78
2022/01/17 01:57:37;;;;;;;;;;;4.80;99.90;;;;;;4976157;28;19921;-78
2022/01/17 02:00:04;;;;;;;;;;;4.80;99.90;;;;;;4979802;28;19928;-78
2022/01/17 02:02:30;;;;;;;;;;;4.80;99.90;;;;;;4995027;28;19921;-78
2022/01/17 02:04:55;;;;;;;;;;;4.80;99.90;;;;;;4996233;28;19917;-78
2022/01/17 02:07:22;;;;;;;;;;;4.80;99.90;;;;;;4995794;28;19921;-78
2022/01/17 02:09:47;;;;;;;;;;;4.80;99.90;;;;;;4995294;28;20357;-78
2022/01/17 02:12:17;;;;;;;;;;;4.70;99.90;;;;;;4995578;28;19967;-78
2022/01/17 02:14:43;;;;;;;;;;;4.70;99.90;;;;;;4995973;28;19971;-78
2022/01/17 02:17:08;;;;;;;;;;;4.70;99.90;;;;;;4991151;28;19973;-78
2022/01/17 02:19:34;;;;;;;;;;;4.80;99.90;;;;;;4976422;28;19944;-78
2022/01/17 02:22:00;;;;;;;;;;;4.70;99.90;;;;;;4976451;28;20012;-78
2022/01/17 02:24:27;;;;;;;;;;;4.70;99.90;;;;;;4975710;28;19926;-78
2022/01/17 02:26:52;;;;;;;;;;;4.70;99.90;;;;;;4976164;28;20369;-78
2022/01/17 02:29:18;;;;;;;;;;;4.70;99.90;;;;;;4976071;28;19922;-78
2022/01/17 02:31:45;;;;;;;;;;;4.70;99.90;;;;;;4992201;28;19928;-78
2022/01/17 02:34:11;;;;;;;;;;;4.80;99.90;;;;;;4995155;28;19925;-77
2022/01/17 02:36:40;;;;;;;;;;;4.80;99.90;;;;;;4995627;28;19976;-78
2022/01/17 02:39:05;;;;;;;;;;;6.10;99.90;;;;;;5012511;28;19921;-78
2022/01/17 02:41:35;;;;;;;;;;;5.00;99.90;;;;;;4999768;28;20291;-78
2022/01/17 02:44:02;;;;;;;;;;;5.00;99.90;;;;;;5001621;28;19921;-77
2022/01/17 02:46:28;;;;;;;;;;;5.00;99.90;;;;;;5002989;28;19921;-79
2022/01/17 02:48:58;;;;;;;;;;;5.10;99.90;;;;;;5021677;28;19925;-79
2022/01/17 02:51:24;;;;;;;;;;;6.30;99.90;;;;;;5021706;28;19921;-79
2022/01/17 02:53:50;;;;;;;;;;;5.10;99.90;;;;;;5020949;28;19971;-79
2022/01/17 02:56:16;;;;;;;;;;;5.20;99.90;;;;;;5021032;28;19921;-79
2022/01/17 02:58:42;;;;;;;;;;;5.20;99.90;;;;;;5020820;28;19967;-79
2022/01/17 03:01:09;;;;;;;;;;;5.20;99.90;;;;;;5021366;28;19928;-79
2022/01/17 03:03:35;;;;;;;;;;;5.30;99.90;;;;;;5021555;28;20257;-79
2022/01/17 03:06:00;;;;;;;;;;;5.40;99.90;;;;;;5020437;28;19925;-79
2022/01/17 03:08:30;;;;;;;;;;;5.40;99.90;;;;;;5038822;28;19996;-79
2022/01/17 03:10:56;;;;;;;;;;;5.40;99.90;;;;;;5021829;28;19925;-79
2022/01/17 03:13:29;;;;;;;;;;;5.40;99.90;;;;;;5020513;28;19927;-79
2022/01/17 03:15:57;;;;;;;;;;;5.40;99.90;;;;;;5021655;28;19921;-79
2022/01/17 03:18:23;;;;;;;;;;;5.40;99.90;;;;;;5020655;28;20068;-79
2022/01/17 03:20:48;;;;;;;;;;;5.40;99.90;;;;;;5020602;28;19967;-79
2022/01/17 03:23:14;;;;;;;;;;;5.40;99.90;;;;;;5021414;28;20327;-80
2022/01/17 03:25:39;;;;;;;;;;;5.40;99.90;;;;;;5021356;28;20007;-79
2022/01/17 03:28:05;;;;;;;;;;;5.40;99.90;;;;;;5020660;28;19973;-80
2022/01/17 03:30:33;;;;;;;;;;;5.50;99.90;;;;;;5021144;28;19929;-79
2022/01/17 03:32:59;;;;;;;;;;;5.40;99.90;;;;;;5021156;28;19927;-79
2022/01/17 03:35:25;;;;;;;;;;;5.40;99.90;;;;;;5019840;28;19968;-80
2022/01/17 03:37:50;;;;;;;;;;;5.40;99.90;;;;;;5021393;28;20375;-80
2022/01/17 03:40:16;;;;;;;;;;;5.40;99.90;;;;;;5020358;28;19927;-79
2022/01/17 03:42:41;;;;;;;;;;;5.30;99.90;;;;;;5021055;28;19925;-80
2022/01/17 03:45:08;;;;;;;;;;;5.30;99.90;;;;;;5020780;28;20289;-79
2022/01/17 03:47:34;;;;;;;;;;;5.40;99.90;;;;;;5020866;28;19964;-79
2022/01/17 03:50:00;;;;;;;;;;;5.30;99.90;;;;;;5020282;28;19983;-79
2022/01/17 03:52:26;;;;;;;;;;;5.30;99.90;;;;;;5018877;28;20011;-80
2022/01/17 03:54:51;;;;;;;;;;;5.40;99.90;;;;;;5017956;28;19924;-79
2022/01/17 03:57:17;;;;;;;;;;;5.40;99.90;;;;;;5017794;28;19921;-79
2022/01/17 03:59:43;;;;;;;;;;;5.40;99.90;;;;;;5017179;28;19945;-79
2022/01/17 04:02:08;;;;;;;;;;;5.40;99.90;;;;;;5016939;28;19921;-80
2022/01/17 04:04:36;;;;;;;;;;;5.50;99.90;;;;;;5018079;28;19917;-79
2022/01/17 04:07:02;;;;;;;;;;;6.60;99.90;;;;;;5017757;28;20118;-80
2022/01/17 04:09:28;;;;;;;;;;;5.50;99.90;;;;;;5013195;28;20004;-79
2022/01/17 04:11:53;;;;;;;;;;;5.60;99.90;;;;;;5011479;28;20381;-80
2022/01/17 04:14:18;;;;;;;;;;;5.60;99.90;;;;;;5015787;28;20016;-79
2022/01/17 04:16:44;;;;;;;;;;;5.60;99.90;;;;;;5017491;28;19921;-80
2022/01/17 04:19:11;;;;;;;;;;;5.70;99.90;;;;;;5017172;28;19921;-79
2022/01/17 04:21:36;;;;;;;;;;;5.70;99.90;;;;;;5017459;28;19927;-79
2022/01/17 04:24:02;;;;;;;;;;;5.60;99.90;;;;;;5034395;28;19924;-79
2022/01/17 04:26:28;;;;;;;;;;;5.60;99.90;;;;;;5017411;28;19921;-79
2022/01/17 04:28:53;;;;;;;;;;;5.70;99.90;;;;;;5017087;28;19925;-79
2022/01/17 04:31:19;;;;;;;;;;;5.70;99.90;;;;;;5034439;28;19952;-80
2022/01/17 04:33:44;;;;;;;;;;;5.70;99.90;;;;;;5017674;28;19921;-79
2022/01/17 04:36:10;;;;;;;;;;;5.80;99.90;;;;;;5016970;28;20016;-80
2022/01/17 04:38:36;;;;;;;;;;;5.80;99.90;;;;;;5016466;28;20033;-79
2022/01/17 04:41:05;;;;;;;;;;;5.80;99.90;;;;;;5017281;28;19928;-79
2022/01/17 04:46:03;;;;;;;;;;;5.90;99.90;;;;;;5016828;28;19928;-78
2022/01/17 04:48:28;;;;;;;;;;;6.00;99.90;;;;;;5016176;28;19921;-79
2022/01/17 04:50:54;;;;;;;;;;;7.30;99.90;;;;;;5017047;28;19921;-80
2022/01/17 04:53:21;;;;;;;;;;;6.00;99.90;;;;;;5016099;28;19921;-79
2022/01/17 04:55:47;;;;;;;;;;;6.00;99.90;;;;;;5034656;28;20059;-80
2022/01/17 04:58:12;;;;;;;;;;;6.00;99.90;;;;;;5015998;28;20012;-80
2022/01/17 05:00:39;;;;;;;;;;;6.00;99.90;;;;;;5016644;28;19928;-80
2022/01/17 05:03:07;;;;;;;;;;;5.90;99.90;;;;;;5013228;28;20387;-79
2022/01/17 05:05:33;;;;;;;;;;;5.90;99.90;;;;;;4995687;28;19925;-79
2022/01/17 05:07:59;;;;;;;;;;;5.90;99.90;;;;;;5014521;28;20348;-79
2022/01/17 05:10:24;;;;;;;;;;;5.90;99.90;;;;;;4996924;28;19921;-80
2022/01/17 05:12:51;;;;;;;;;;;5.90;99.90;;;;;;5028860;28;19928;-80
2022/01/17 05:15:25;;;;;;;;;;;5.90;99.90;;;;;;4996747;28;19961;-80
2022/01/17 05:20:35;;;;;;;;;;;6.00;99.90;;;;;;4996277;28;19922;-79
2022/01/17 05:23:01;;;;;;;;;;;6.00;99.90;;;;;;5014387;28;19931;-80
2022/01/17 05:25:26;;;;;;;;;;;6.00;99.90;;;;;;5014047;28;19925;-80
2022/01/17 05:27:52;;;;;;;;;;;6.00;99.90;;;;;;5011303;28;19928;-80
2022/01/17 05:30:18;;;;;;;;;;;6.10;99.90;;;;;;5048687;28;19921;-80
2022/01/17 05:32:44;;;;;;;;;;;6.10;99.90;;;;;;5016226;28;19927;-80
2022/01/17 05:35:10;;;;;;;;;;;6.10;99.90;;;;;;5015161;28;19925;-81
2022/01/17 05:37:36;;;;;;;;;;;6.10;99.90;;;;;;5033638;28;19924;-80
2022/01/17 05:40:02;;;;;;;;;;;6.10;99.90;;;;;;5015806;28;19921;-80
2022/01/17 05:42:28;;;;;;;;;;;7.10;99.90;;;;;;5015331;28;19971;-78
2022/01/17 05:44:54;;;;;;;;;;;6.10;99.90;;;;;;5015794;28;20323;-80
2022/01/17 05:47:19;;;;;;;;;;;6.10;99.90;;;;;;5015286;28;19999;-81
2022/01/17 05:49:45;;;;;;;;;;;6.20;99.90;;;;;;5015436;28;19975;-81
2022/01/17 05:52:11;;;;;;;;;;;6.20;99.90;;;;;;5015160;28;20372;-81
2022/01/17 05:54:37;;;;;;;;;;;6.20;99.90;;;;;;5015718;28;20004;-80
2022/01/17 05:57:02;;;;;;;;;;;6.20;99.90;;;;;;5011648;28;20014;-81
2022/01/17 05:59:28;;;;;;;;;;;6.20;99.90;;;;;;5011680;28;19971;-80
2022/01/17 06:01:53;;;;;;;;;;;6.20;99.90;;;;;;5013412;28;19921;-79
2022/01/17 06:04:20;;;;;;;;;;;6.20;99.90;;;;;;5012744;28;20004;-77
2022/01/17 06:06:46;;;;;;;;;;;6.20;99.90;;;;;;5013484;28;19979;-81
2022/01/17 06:09:12;;;;;;;;;;;6.20;99.90;;;;;;5031873;28;20346;-86
2022/01/17 06:11:37;;;;;;;;;;;6.20;99.90;;;;;;5033761;28;20076;-81
2022/01/17 06:14:04;;;;;;;;;;;6.20;99.90;;;;;;5016198;28;19928;-88
2022/01/17 06:16:30;;;;;;;;;;;6.20;99.90;;;;;;5014867;28;19927;-84
2022/01/17 06:18:56;;;;;;;;;;;6.20;99.90;;;;;;5012824;28;20020;-92
2022/01/17 06:21:22;;;;;;;;;;;6.30;99.90;;;;;;5012057;28;19931;-84
2022/01/17 06:23:48;;;;;;;;;;;6.30;99.90;;;;;;5012159;28;19928;-92
2022/01/17 06:26:13;;;;;;;;;;;6.30;99.90;;;;;;5012420;28;19922;-80
2022/01/17 06:28:39;;;;;;;;;;;6.30;99.90;;;;;;4995992;28;19921;-80
2022/01/17 06:31:04;;;;;;;;;;;6.30;99.90;;;;;;4995395;28;19947;-83
2022/01/17 06:33:30;;;;;;;;;;;6.30;99.90;;;;;;4996247;28;19980;-79
2022/01/17 06:35:56;;;;;;;;;;;6.30;99.90;;;;;;5013075;28;19983;-81
2022/01/17 06:38:21;;;;;;;;;;;6.30;99.90;;;;;;5010475;28;19928;-82
2022/01/17 06:40:47;;;;;;;;;;;6.40;99.90;;;;;;5004735;28;19928;-79
2022/01/17 06:43:13;;;;;;;;;;;6.40;99.90;;;;;;5010491;28;19990;-79
2022/01/17 06:45:39;;;;;;;;;;;6.40;99.90;;;;;;5011054;28;19921;-81
2022/01/17 06:48:05;;;;;;;;;;;6.40;99.90;;;;;;5003976;28;19921;-80
2022/01/17 06:50:32;;;;;;;;;;;6.40;99.90;;;;;;5013951;28;19984;-81
2022/01/17 06:52:57;;;;;;;;;;;6.40;99.90;;;;;;5008107;28;19928;-81
2022/01/17 06:55:23;;;;;;;;;;;6.40;99.90;;;;;;5011335;28;19949;-80
2022/01/17 06:57:48;;;;;;;;;;;6.40;99.90;;;;;;5009106;28;19922;-80
2022/01/17 07:00:14;;;;;;;;;;;6.40;99.90;;;;;;5009927;28;20015;-80
2022/01/17 07:02:39;;;;;;;;;;;6.50;99.90;;;;;;5030805;28;20012;-82
2022/01/17 07:05:08;;;;;;;;;;;6.50;99.90;;;;;;5031158;28;19921;-82
2022/01/17 07:07:34;;;;;;;;;;;6.50;99.90;;;;;;5032252;28;20356;-82
2022/01/17 07:09:59;;;;;;;;;;;6.50;99.90;;;;;;5032233;28;19916;-83
2022/01/17 07:12:25;;;;;;;;;;;6.50;99.90;;;;;;5031207;28;20066;-82
2022/01/17 07:14:50;;;;;;;;;;;6.50;99.90;;;;;;5010663;28;20008;-84
2022/01/17 07:17:19;;;;;;;;;;;6.50;99.90;;;;;;5012154;28;19945;-87
2022/01/17 07:19:44;;;;;;;;;;;6.50;99.90;;;;;;5012774;28;19922;-89
2022/01/17 07:22:10;;;;;;;;;;;6.60;99.90;;;;;;4995112;28;19921;-91
2022/01/17 07:24:36;;;;;;;;;;;6.60;99.90;;;;;;5013161;28;20381;-87
2022/01/17 07:27:01;;;;;;;;;;;6.60;99.90;;;;;;5006471;28;20369;-84
2022/01/17 07:29:27;;;;;;;;;;;6.70;99.90;;;;;;5005422;28;19971;-82
2022/01/17 07:31:54;;;;;;;;;;;6.70;99.90;;;;;;5014681;28;19921;-82
2022/01/17 07:34:19;;;;;;;;;;;6.70;99.90;;;;;;4998151;28;20522;-83
2022/01/17 07:36:45;;;;;;;;;;;6.70;99.90;;;;;;4998609;28;19921;-84
2022/01/17 07:39:11;;;;;;;;;;;6.80;99.90;;;;;;5006217;28;19936;-82
2022/01/17 07:41:36;;;;;;;;;;;6.80;99.90;;;;;;5035317;28;19928;-79
2022/01/17 07:44:03;;;;;;;;;;;6.80;99.90;;;;;;5014991;28;19925;-81
2022/01/17 07:46:35;;;;;;;;;;;6.90;99.90;;;;;;5015693;28;19921;-80
2022/01/17 07:49:10;;;;;;;;;;;6.80;99.90;;;;;;4998239;28;19921;-78
2022/01/17 07:51:41;;;;;;;;;;;6.90;99.90;;;;;;4998984;28;19921;-83
2022/01/17 07:54:08;;;;;;;;;;;6.90;99.90;;;;;;4997859;28;19929;-83
2022/01/17 07:56:34;;;;;;;;;;;6.90;99.90;;;;;;4999172;28;20032;-82
2022/01/17 07:59:00;;;;;;;;;;;6.90;99.90;;;;;;5014316;28;20012;-83
2022/01/17 08:01:26;;;;;;;;;;;6.90;99.90;;;;;;4997830;28;20023;-80
2022/01/17 08:03:51;;;;;;;;;;;7.00;99.90;;;;;;5007605;28;19925;-85
2022/01/17 08:06:17;;;;;;;;;;;7.00;99.90;;;;;;5015417;28;19925;-80
2022/01/17 08:08:42;;;;;;;;;;;7.00;99.90;;;;;;5013776;28;20015;-84
2022/01/17 08:11:08;;;;;;;;;;;7.00;99.90;;;;;;5032977;28;19967;-84
2022/01/17 08:15:30;;;;;;;17.80;3.33;;;7.00;99.90;;;;;;5193128;27;20314;-82
2022/01/17 08:18:05;;;;;;;20.10;3.67;;;7.00;99.90;;;;;;5171032;27;20046;-81
2022/01/17 08:20:31;;;;;;;24.77;3.90;;;7.10;99.90;;;;;;5151613;27;20057;-80
2022/01/17 08:22:57;;;;;;;;;;;7.10;99.90;;;;;;5169539;27;20035;-80
2022/01/17 08:25:23;;;;;;;16.95;3.28;;;7.30;99.90;;;;;;5171029;27;19915;-80
2022/01/17 08:27:49;;;;;;;18.88;4.40;;;7.10;99.90;;;;;;5171016;27;20047;-80
2022/01/17 08:30:15;;;;;;;;;;;7.20;99.90;;;;;;5171241;27;20049;-80
2022/01/17 08:32:41;;;;;;;16.50;3.97;;;7.20;99.90;;;;;;5171540;27;19919;-80
2022/01/17 08:35:07;;;;;;;;;;;7.20;99.90;;;;;;5170738;27;20090;-80
2022/01/17 08:37:33;;;;;;;22.02;4.10;;;7.30;99.90;;;;;;5171154;27;20426;-80
2022/01/17 08:39:59;;;;;;;;;;;7.30;99.90;;;;;;5172259;27;20048;-80
2022/01/17 08:42:26;;;;;;;18.80;5.03;;;7.40;99.90;;;;;;5172048;27;19926;-79
2022/01/17 08:44:53;;;;;;;17.52;4.53;;;7.40;99.90;;;;;;5170843;27;20061;-80
2022/01/17 08:47:19;;;;;;;13.07;3.33;;;7.50;99.90;;;;;;5171598;27;20150;-79
2022/01/17 08:49:45;;;;;;;;;;;7.50;99.90;;;;;;5172429;27;20058;-80
2022/01/17 08:52:12;;;;;;;21.13;3.47;;;7.50;99.90;;;;;;5171046;27;20437;-79
2022/01/17 08:54:38;;;;;;;20.35;4.30;;;7.60;99.90;;;;;;5169809;27;20046;-79
2022/01/17 08:57:04;;;;;;;;;;;7.60;99.90;;;;;;5172267;27;20042;-82
2022/01/17 08:59:31;;;;;;;19.90;3.20;;;7.60;99.90;;;;;;5169323;27;19991;-79
2022/01/17 09:02:00;;;;;;;24.48;3.90;;;7.60;99.90;;;;;;5171933;27;20125;-79
2022/01/17 09:04:26;;;;;;;23.00;4.53;;;7.60;99.90;;;;;;5170708;27;20077;-79
2022/01/17 09:06:52;;;;;;;;;;;7.70;99.90;;;;;;5172143;27;20517;-80
2022/01/17 09:09:17;;;;;;;20.15;4.45;;;7.70;99.90;;;;;;5170974;27;20301;-80
2022/01/17 09:11:43;;;;;;;;;;;8.60;99.90;;;;;;5171219;27;20397;-81
2022/01/17 09:14:09;;;;;;;23.10;4.47;;;7.80;99.90;;;;;;5170243;27;19918;-81
2022/01/17 09:16:35;;;;;;;;;;;7.80;99.90;;;;;;5171984;27;20042;-80
2022/01/17 09:19:02;;;;;;;19.90;3.95;;;7.80;99.90;;;;;;5169312;27;19919;-79
2022/01/17 09:21:28;;;;;;;18.83;4.35;;;7.90;99.90;;;;;;5170740;27;20047;-89
2022/01/17 09:23:57;;;;;;;;;;;8.70;99.90;;;;;;5171335;27;20503;-80
2022/01/17 09:26:25;;;;;;;20.83;3.88;;;8.10;99.90;;;;;;5157454;27;19954;-79
2022/01/17 09:28:54;;;;;;;20.73;3.78;;;8.20;99.90;;;;;;5155396;27;20405;-78
2022/01/17 09:31:20;;;;;;;21.75;5.88;;;8.20;99.90;;;;;;5156884;27;20050;-79
2022/01/17 09:33:46;;;;;;;;;;;8.70;99.90;;;;;;5156469;27;20405;-80
2022/01/17 09:36:12;;;;;;;21.52;4.10;;;8.60;99.90;;;;;;5155919;27;19927;-77
2022/01/17 09:38:43;;;;;;;22.45;4.60;;;8.70;99.90;;;;;;5156904;27;20064;-79
2022/01/17 09:41:18;;;;;;;23.00;4.20;;;8.70;99.90;;;;;;5155522;27;20049;-78
2022/01/17 09:43:44;;;;;;;24.75;4.88;;;8.70;99.90;;;;;;5156709;27;20042;-79
2022/01/17 09:46:10;;;;;;;;;;;8.70;99.90;;;;;;5146350;27;20443;-76
2022/01/17 09:48:38;;;;;;;23.15;4.65;;;9.10;99.90;;;;;;5155519;27;19994;-79
2022/01/17 09:51:17;;;;;;;18.77;4.80;;;9.50;99.90;;;;;;5156614;27;20111;-79
2022/01/17 09:53:44;;;;;;;23.60;4.35;;;9.20;99.90;;;;;;5156147;27;20039;-77
2022/01/17 09:56:12;;;;;;;26.45;4.93;;;9.60;99.90;;;;;;5134350;27;20126;-79
2022/01/17 09:58:39;;;;;;;23.10;4.60;;;10.20;99.90;;;;;;5135978;27;20043;-76
2022/01/17 10:01:05;;;;;;;27.35;6.88;;;10.30;99.90;;;;;;5133761;27;20043;-76
2022/01/17 10:03:32;;;;;;;27.30;5.68;;;10.10;99.90;;;;;;5134706;27;20424;-76
2022/01/17 10:05:58;;;;;;;27.90;7.85;;;9.90;99.90;;;;;;5135475;27;20152;-76
2022/01/17 10:08:24;;;;;;;;;;;9.70;99.90;;;;;;5133968;27;20133;-77
2022/01/17 10:11:01;;;;;;;21.35;4.68;;;9.70;99.90;;;;;;5134095;27;19985;-76
2022/01/17 10:13:38;;;;;;;28.00;5.78;;;9.60;99.90;;;;;;5133652;27;20055;-76
2022/01/17 10:16:06;;;;;;;23.25;5.57;;;9.80;99.90;;;;;;5153731;27;20046;-77
2022/01/17 10:18:50;;;;;;;27.30;5.93;;;9.90;99.90;;;;;;5155023;27;20538;-77
2022/01/17 10:21:41;;;;;;;30.48;6.00;;;9.90;99.90;;;;;;5154564;27;20042;-77
2022/01/17 10:24:36;;;;;;;22.50;5.18;;;10.50;99.90;;;;;;5154524;27;20031;-78
2022/01/17 10:27:12;;;;;;;25.58;4.88;;;9.90;99.90;;;;;;5154008;27;20050;-79
2022/01/17 10:35:17;;;;;;;23.05;5.07;;;10.90;99.90;;;;;;5133556;27;20055;-77
2022/01/17 10:37:55;;;;;;;23.50;5.30;;;10.80;99.90;;;;;;5133374;27;20039;-76
2022/01/17 10:40:21;;;;;;;25.58;5.15;;;10.70;99.90;;;;;;5133740;27;20130;-75
2022/01/17 10:42:48;;;;;;;;;;;10.60;99.90;;;;;;5133964;27;20129;-75
2022/01/17 10:45:15;;;;;;;;;;;10.50;99.90;;;;;;5149460;27;19918;-75
2022/01/17 10:47:44;;;;;;;23.65;6.28;;;10.40;99.90;;;;;;5154573;27;20293;-75
2022/01/17 10:50:14;;;;;;;29.25;6.20;;;10.50;99.90;;;;;;5153333;27;20859;-75
2022/01/17 10:52:48;;;;;;;33.85;6.07;;;11.00;99.90;;;;;;5145232;27;20406;-77
2022/01/17 10:55:20;;;;;;;30.40;5.68;;;11.60;99.90;;;;;;5138850;27;20039;-78
2022/01/17 10:57:53;;;;;;;25.33;5.45;;;11.90;99.90;;;;;;5147519;27;20149;-75
2022/01/17 11:00:22;;;;;;;24.27;5.22;;;12.70;99.90;;;;;;5153969;27;20037;-77
2022/01/17 11:02:53;;;;;;;24.40;5.45;;;13.90;99.90;;;;;;5155120;27;20442;-76
2022/01/17 11:05:22;;;;;;;22.95;6.00;;;14.90;99.90;;;;;;5149316;27;20400;-75
2022/01/17 11:07:49;;;;;;;30.10;6.15;;;15.10;99.90;;;;;;5133217;27;20047;-76
2022/01/17 11:10:24;;;;;;;23.88;5.50;;;15.50;99.90;;;;;;5132627;27;20060;-76
2022/01/17 11:12:51;;;;;;;31.27;5.97;;;16.00;99.90;;;;;;5141257;27;20050;-75
2022/01/17 11:15:19;;;;;;;21.55;6.03;;;16.50;99.90;;;;;;5151577;27;20062;-76
2022/01/17 11:17:50;;;;;;;22.67;5.70;;;17.20;99.90;;;;;;5135729;27;20099;-77
2022/01/17 11:20:16;;;;;;;22.77;5.72;;;17.40;99.90;;;;;;5143931;27;20091;-75
2022/01/17 11:22:44;;;;;;;21.42;5.63;;;17.80;99.90;;;;;;5145337;27;20039;-75
2022/01/17 11:25:13;;;;;;;21.65;5.63;;;17.80;99.90;;;;;;5148785;27;20061;-79
2022/01/17 11:27:40;;;;;;;20.95;5.10;;;18.00;99.90;;;;;;5137372;27;20114;-77
2022/01/17 11:30:10;;;;;;;21.10;5.40;;;17.90;99.90;;;;;;5133733;27;20051;-77
2022/01/17 11:32:39;;;;;;;23.27;5.97;;;18.00;99.90;;;;;;5138258;27;20042;-78
2022/01/17 11:35:08;;;;;;;20.80;5.50;;;18.40;99.90;;;;;;5152577;27;20042;-76
2022/01/17 11:37:37;;;;;;;25.75;4.95;;;18.20;99.90;;;;;;5153220;27;20753;-76
2022/01/17 11:40:05;;;;;;;25.02;5.57;;;18.30;99.90;;;;;;5153845;27;20035;-76
2022/01/17 11:42:32;;;;;;;19.38;5.30;;;18.60;99.90;;;;;;5154625;27;20046;-76
2022/01/17 11:45:02;;;;;;;21.42;5.15;;;18.40;99.90;;;;;;5153416;27;20046;-76
2022/01/17 11:47:56;;;;;;;20.75;6.13;;;18.40;99.90;;;;;;5152428;27;20122;-76
2022/01/17 11:50:32;;;;;;;16.30;4.85;;;18.80;99.50;;;;;;5149129;27;20096;-76
2022/01/17 11:53:00;;;;;;;19.58;4.90;;;18.90;99.20;;;;;;5152590;27;20077;-76
2022/01/17 11:55:48;;;;;;;20.58;5.65;;;18.80;99.90;;;;;;5148303;27;20058;-80
2022/01/17 11:58:26;;;;;;;30.60;6.47;;;18.70;98.60;;;;;;5133198;27;20051;-76
2022/01/17 12:01:00;;;;;;;21.15;5.85;;;18.80;99.90;;;;;;5131613;27;20062;-76
2022/01/17 12:03:48;;;;;;;18.90;6.30;;;18.70;99.90;;;;;;5130909;27;20050;-78
2022/01/17 12:06:25;;;;;;;23.02;5.70;;;18.40;99.00;;;;;;5132386;27;20047;-77
2022/01/17 12:09:24;;;;;;;21.65;5.88;;;18.60;99.90;;;;;;5152521;27;20052;-79
2022/01/17 12:11:56;;;;;;;23.80;5.95;;;18.50;98.70;;;;;;5153175;27;20431;-78
2022/01/17 12:14:27;;;;;;;24.45;6.13;;;18.70;99.70;;;;;;5151949;27;20089;-78
2022/01/17 12:16:54;;;;;;;21.02;5.70;;;19.30;99.90;;;;;;5153071;27;20062;-79
2022/01/17 12:19:20;;;;;;;21.90;6.25;;;18.80;99.80;;;;;;5148683;27;20047;-77
2022/01/17 12:21:53;;;;;;;26.42;7.15;;;18.90;99.00;;;;;;5131898;27;20084;-76
2022/01/17 12:24:37;;;;;;;20.80;6.80;;;18.40;99.80;;;;;;5144322;27;20488;-77
2022/01/17 12:27:09;;;;;;;25.00;6.82;;;18.40;99.30;;;;;;5137527;27;20093;-84
2022/01/17 12:29:47;;;;;;;26.88;7.35;;;18.60;99.90;;;;;;5152848;27;20474;-84
2022/01/17 12:32:29;;;;;;;23.65;6.35;;;18.70;99.50;;;;;;5152312;27;20057;-81
2022/01/17 12:34:58;;;;;;;23.50;7.13;;;18.50;99.00;;;;;;5153640;27;20054;-83
2022/01/17 12:37:39;;;;;;;24.75;7.25;;;18.30;99.90;;;;;;5152172;27;20076;-86
2022/01/17 12:40:21;;;;;;;30.25;8.07;;;18.10;99.80;;;;;;5150580;27;20043;-88
2022/01/17 12:43:05;;;;;;;21.77;6.28;;;18.00;99.90;;;;;;5131138;28;20055;-80
2022/01/17 12:45:37;;;;;;;25.00;7.50;;;18.10;99.90;;;;;;5132057;28;20042;-75
2022/01/17 12:48:09;;;;;;;29.85;7.22;;;18.40;99.90;;;;;;5132342;27;20046;-76
2022/01/17 12:50:37;;;;;;;25.40;5.90;;;18.40;99.90;;;;;;5130215;27;20043;-75
2022/01/17 12:53:07;;;;;;;26.27;7.63;;;18.20;99.30;;;;;;5143255;27;20043;-79
2022/01/17 13:00:36;;;;;;;24.50;6.68;;;18.00;99.90;;;;;;5050998;28;20373;-81
2022/01/17 13:03:23;;;;;;;23.73;6.70;;;17.10;99.90;;;;;;5036832;28;20053;-78
2022/01/17 13:06:09;;;;;;;28.52;7.47;;;17.60;99.90;;;;;;5037223;28;20051;-77
2022/01/17 13:08:41;;;;;;;24.88;6.47;;;17.20;99.90;;;;;;5036933;28;20037;-78
2022/01/17 13:11:12;;;;;;;29.05;6.70;;;16.90;99.90;;;;;;5036269;28;20051;-76
2022/01/17 13:14:04;;;;;;;22.30;6.00;;;16.20;99.90;;;;;;5055209;28;20045;-74
2022/01/17 13:25:10;;;;;;;26.30;6.43;;;15.50;99.90;;;;;;5262612;22;20061;-74
2022/01/17 13:27:42;;;;;;;24.25;6.82;;;15.50;99.90;;;;;;4989843;28;20042;-74
2022/01/17 13:30:11;;;;;;;25.70;7.03;;;15.10;99.90;;;;;;4996027;28;20042;-75
2022/01/17 13:32:38;;;;;;;29.90;7.05;;;15.10;99.90;;;;;;4996646;28;20450;-78
2022/01/17 13:35:21;;;;;;;26.38;6.53;;;14.80;99.90;;;;;;4994110;28;20122;-78
2022/01/17 13:37:49;;;;;;;27.05;7.25;;;14.50;99.90;;;;;;4994287;28;20046;-77
2022/01/17 13:40:22;;;;;;;25.52;7.43;;;14.10;99.90;;;;;;4993701;28;20133;-77
2022/01/17 13:42:54;;;;;;;29.58;7.18;;;13.60;99.90;;;;;;4993750;28;20137;-76
2022/01/17 13:45:39;;;;;;;29.42;8.13;;;13.20;99.90;;;;;;4995826;28;20122;-79
2022/01/17 13:48:26;;;;;;;27.73;6.43;;;12.70;99.90;;;;;;4997319;28;20089;-78
2022/01/17 13:51:02;;;;;;;31.67;7.50;;;12.20;99.90;;;;;;4998602;28;20141;-78
2022/01/17 13:53:34;;;;;;;27.23;7.32;;;11.90;99.90;;;;;;4993418;28;20074;-78
2022/01/17 13:56:02;;;;;;;22.30;6.72;;;11.70;99.90;;;;;;4994032;28;20548;-77
2022/01/17 13:58:31;;;;;;;33.75;6.97;;;11.40;99.90;;;;;;5003970;28;20038;-76
2022/01/17 14:01:00;;;;;;;27.45;5.88;;;11.20;99.90;;;;;;4995803;28;20046;-74
2022/01/17 14:03:30;;;;;;;27.35;5.95;;;11.10;99.90;;;;;;4993395;28;20050;-75
2022/01/17 14:06:04;;;;;;;27.08;7.30;;;10.80;99.90;;;;;;4994058;28;20047;-75
2022/01/17 14:08:32;;;;;;;32.45;7.97;;;10.70;99.90;;;;;;4995429;28;20124;-76
2022/01/17 14:11:10;;;;;;;32.60;6.68;;;10.60;99.90;;;;;;5014526;28;20052;-76
2022/01/17 14:13:47;;;;;;;30.13;7.28;;;10.50;99.90;;;;;;5014775;28;20049;-75
2022/01/17 14:16:33;;;;;;;30.05;7.25;;;10.40;99.90;;;;;;5011072;28;20395;-73
2022/01/17 14:19:04;;;;;;;27.67;6.80;;;10.40;99.90;;;;;;4993407;28;20073;-77
2022/01/17 14:21:39;;;;;;;25.70;6.38;;;10.40;99.90;;;;;;4990654;28;20048;-76
2022/01/17 14:29:31;;;;;;;27.60;6.55;;;10.30;99.90;;;;;;6162032;22;20058;-74
2022/01/17 14:31:58;;;;;;;22.58;5.45;;;10.20;99.90;;;;;;5056463;28;20049;-76